createdAt,value
2023-03-12T00:00:24.451Z,989.19
2023-03-12T00:01:23.535Z,989.24
2023-03-12T00:02:23.548Z,989.19
2023-03-12T00:03:23.530Z,989.19
2023-03-12T00:04:23.505Z,989.23
2023-03-12T00:05:23.475Z,989.27
2023-03-12T00:06:23.489Z,989.22
2023-03-12T00:07:23.471Z,989.24
2023-03-12T00:08:23.487Z,989.24
2023-03-12T00:09:23.455Z,989.32
2023-03-12T00:10:23.454Z,989.33
2023-03-12T00:11:23.456Z,989.30
2023-03-12T00:12:23.446Z,989.36
2023-03-12T00:13:23.436Z,989.31
2023-03-12T00:14:23.423Z,989.34
2023-03-12T00:15:23.422Z,989.37
2023-03-12T00:16:23.512Z,989.34
2023-03-12T00:17:23.409Z,989.40
2023-03-12T00:18:23.399Z,989.32
2023-03-12T00:19:23.394Z,989.35
2023-03-12T00:20:23.518Z,989.35
2023-03-12T00:21:23.389Z,989.30
2023-03-12T00:22:23.371Z,989.32
2023-03-12T00:24:22.986Z,989.27
2023-03-12T00:25:22.980Z,989.28
2023-03-12T00:26:24.078Z,989.32
2023-03-12T00:27:24.062Z,989.33
2023-03-12T00:28:24.705Z,989.41
2023-03-12T00:29:24.037Z,989.37
2023-03-12T00:30:24.049Z,989.44
2023-03-12T00:31:24.096Z,989.42
2023-03-12T00:32:24.075Z,989.45
2023-03-12T00:33:24.016Z,989.48
2023-03-12T00:34:23.997Z,989.44
2023-03-12T00:35:24.076Z,989.47
2023-03-12T00:36:23.980Z,989.48
2023-03-12T00:37:23.985Z,989.45
2023-03-12T00:38:23.998Z,989.50
2023-03-12T00:39:24.013Z,989.49
2023-03-12T00:40:23.951Z,989.53
2023-03-12T00:41:23.969Z,989.53
2023-03-12T00:42:23.944Z,989.50
2023-03-12T00:43:23.928Z,989.54
2023-03-12T00:44:23.931Z,989.48
2023-03-12T00:45:23.909Z,989.51
2023-03-12T00:46:23.942Z,989.48
2023-03-12T00:47:23.898Z,989.39
2023-03-12T00:48:23.895Z,989.42
2023-03-12T00:49:23.871Z,989.47
2023-03-12T00:50:23.861Z,989.42
2023-03-12T00:51:23.861Z,989.42
2023-03-12T00:52:23.900Z,989.38
2023-03-12T00:53:24.599Z,989.45
2023-03-12T00:54:23.836Z,989.41
2023-03-12T00:55:23.831Z,989.40
2023-03-12T00:56:23.824Z,989.33
2023-03-12T00:57:23.815Z,989.38
2023-03-12T00:58:23.806Z,989.29
2023-03-12T00:59:23.798Z,989.30
2023-03-12T01:00:23.824Z,989.34
2023-03-12T01:01:23.772Z,989.38
2023-03-12T01:02:24.605Z,989.45
2023-03-12T01:03:23.779Z,989.31
2023-03-12T01:04:23.787Z,989.32
2023-03-12T01:05:23.759Z,989.29
2023-03-12T01:06:23.743Z,989.35
2023-03-12T01:07:23.753Z,989.38
2023-03-12T01:08:23.762Z,989.29
2023-03-12T01:09:23.731Z,989.34
2023-03-12T01:10:23.755Z,989.35
2023-03-12T01:11:23.715Z,989.25
2023-03-12T01:12:23.689Z,989.31
2023-03-12T01:13:23.715Z,989.27
2023-03-12T01:14:23.683Z,989.29
2023-03-12T01:15:23.687Z,989.32
2023-03-12T01:16:23.670Z,989.24
2023-03-12T01:17:23.670Z,989.23
2023-03-12T01:18:23.669Z,989.21
2023-03-12T01:19:23.748Z,989.23
2023-03-12T01:20:23.638Z,989.22
2023-03-12T01:21:23.647Z,989.16
2023-03-12T01:22:23.628Z,989.20
2023-03-12T01:23:23.640Z,989.22
2023-03-12T01:24:23.648Z,989.19
2023-03-12T01:25:23.597Z,989.16
2023-03-12T01:26:23.616Z,989.15
2023-03-12T01:27:23.586Z,989.14
2023-03-12T01:28:23.592Z,989.17
2023-03-12T01:29:23.594Z,989.12
2023-03-12T01:30:23.616Z,989.10
2023-03-12T01:31:23.602Z,989.11
2023-03-12T01:32:23.587Z,989.07
2023-03-12T01:33:23.540Z,989.06
2023-03-12T01:34:23.524Z,989.07
2023-03-12T01:35:24.572Z,989.07
2023-03-12T01:36:23.537Z,989.15
2023-03-12T01:37:23.511Z,989.10
2023-03-12T01:38:23.499Z,989.12
2023-03-12T01:39:23.506Z,989.15
2023-03-12T01:40:23.497Z,989.10
2023-03-12T01:41:23.480Z,989.13
2023-03-12T01:42:23.467Z,989.16
2023-03-12T01:43:23.457Z,989.16
2023-03-12T01:44:23.449Z,989.20
2023-03-12T01:45:23.452Z,989.13
2023-03-12T01:46:23.445Z,989.21
2023-03-12T01:47:23.447Z,989.15
2023-03-12T01:48:23.426Z,989.14
2023-03-12T01:49:23.404Z,989.11
2023-03-12T01:50:23.416Z,989.09
2023-03-12T01:51:23.397Z,989.13
2023-03-12T01:52:23.385Z,989.11
2023-03-12T01:53:23.381Z,989.12
2023-03-12T01:54:23.366Z,989.14
2023-03-12T01:55:23.366Z,989.12
2023-03-12T01:56:23.350Z,989.13
2023-03-12T01:57:23.344Z,989.13
2023-03-12T01:58:23.381Z,989.06
2023-03-12T01:59:23.341Z,989.04
2023-03-12T02:00:23.332Z,989.06
2023-03-12T02:01:23.429Z,989.06
2023-03-12T02:02:23.308Z,989.03
2023-03-12T02:03:23.288Z,989.00
2023-03-12T02:04:24.328Z,989.04
2023-03-12T02:05:23.284Z,989.02
2023-03-12T02:06:23.357Z,989.02
2023-03-12T02:07:23.291Z,989.04
2023-03-12T02:08:23.272Z,989.03
2023-03-12T02:09:23.328Z,989.06
2023-03-12T02:10:23.263Z,989.04
2023-03-12T02:11:23.242Z,988.99
2023-03-12T02:12:23.234Z,989.07
2023-03-12T02:13:23.225Z,989.10
2023-03-12T02:14:23.212Z,989.04
2023-03-12T02:15:23.203Z,988.98
2023-03-12T02:16:23.275Z,989.03
2023-03-12T02:17:23.204Z,989.05
2023-03-12T02:18:23.175Z,989.04
2023-03-12T02:19:23.164Z,988.94
2023-03-12T02:20:23.166Z,989.00
2023-03-12T02:21:23.152Z,988.94
2023-03-12T02:22:23.158Z,989.00
2023-03-12T02:23:23.153Z,988.97
2023-03-12T02:24:23.138Z,989.04
2023-03-12T02:25:23.119Z,989.05
2023-03-12T02:26:23.105Z,989.07
2023-03-12T02:27:23.136Z,989.02
2023-03-12T02:28:23.126Z,989.08
2023-03-12T02:29:23.087Z,989.01
2023-03-12T02:30:23.137Z,989.04
2023-03-12T02:31:23.134Z,989.00
2023-03-12T02:32:23.244Z,988.97
2023-03-12T02:33:23.068Z,989.01
2023-03-12T02:34:23.047Z,989.01
2023-03-12T02:35:23.061Z,988.97
2023-03-12T02:36:23.041Z,988.95
2023-03-12T02:37:23.024Z,988.99
2023-03-12T02:38:23.051Z,988.99
2023-03-12T02:39:23.617Z,988.97
2023-03-12T02:40:23.030Z,988.97
2023-03-12T02:41:22.994Z,988.93
2023-03-12T02:42:22.999Z,988.94
2023-03-12T02:43:22.979Z,988.99
2023-03-12T02:44:22.986Z,988.93
2023-03-12T02:45:22.975Z,988.92
2023-03-12T02:46:23.064Z,989.01
2023-03-12T02:47:22.953Z,988.98
2023-03-12T02:48:22.936Z,988.98
2023-03-12T02:49:22.945Z,988.99
2023-03-12T02:50:22.950Z,988.99
2023-03-12T02:51:22.934Z,988.90
2023-03-12T02:52:22.915Z,988.97
2023-03-12T02:53:22.916Z,989.00
2023-03-12T02:54:22.911Z,988.95
2023-03-12T02:55:22.903Z,989.00
2023-03-12T02:56:22.885Z,988.94
2023-03-12T02:57:22.890Z,988.94
2023-03-12T02:58:22.869Z,988.97
2023-03-12T02:59:22.871Z,989.00
2023-03-12T03:00:22.851Z,988.94
2023-03-12T03:01:22.876Z,988.94
2023-03-12T03:02:22.840Z,989.02
2023-03-12T03:03:22.827Z,988.93
2023-03-12T03:04:22.931Z,988.96
2023-03-12T03:05:22.842Z,988.95
2023-03-12T03:06:23.613Z,988.96
2023-03-12T03:07:22.800Z,988.96
2023-03-12T03:08:22.803Z,988.99
2023-03-12T03:09:22.781Z,988.96
2023-03-12T03:10:22.792Z,988.93
2023-03-12T03:11:23.590Z,988.92
2023-03-12T03:12:23.632Z,988.88
2023-03-12T03:13:22.750Z,988.89
2023-03-12T03:14:22.758Z,988.92
2023-03-12T03:15:22.733Z,988.97
2023-03-12T03:16:22.730Z,988.96
2023-03-12T03:17:22.730Z,988.98
2023-03-12T03:18:23.630Z,989.00
2023-03-12T03:19:22.714Z,989.00
2023-03-12T03:20:22.714Z,989.03
2023-03-12T03:21:22.697Z,989.00
2023-03-12T03:22:22.678Z,989.01
2023-03-12T03:23:22.665Z,989.00
2023-03-12T03:24:22.700Z,988.99
2023-03-12T03:25:22.675Z,989.05
2023-03-12T03:26:22.662Z,989.03
2023-03-12T03:27:22.643Z,989.04
2023-03-12T03:28:22.646Z,989.04
2023-03-12T03:29:22.660Z,989.00
2023-03-12T03:30:22.609Z,988.97
2023-03-12T03:31:22.716Z,989.02
2023-03-12T03:32:22.650Z,988.98
2023-03-12T03:33:22.610Z,988.99
2023-03-12T03:34:22.599Z,988.92
2023-03-12T03:35:22.618Z,988.91
2023-03-12T03:36:22.587Z,988.88
2023-03-12T03:37:22.566Z,988.90
2023-03-12T03:38:22.581Z,988.84
2023-03-12T03:39:22.568Z,988.84
2023-03-12T03:40:22.539Z,988.88
2023-03-12T03:41:22.520Z,988.91
2023-03-12T03:42:22.529Z,988.91
2023-03-12T03:43:22.565Z,988.91
2023-03-12T03:44:22.504Z,988.86
2023-03-12T03:45:22.501Z,988.91
2023-03-12T03:46:22.566Z,988.98
2023-03-12T03:47:22.487Z,988.96
2023-03-12T03:48:22.489Z,988.92
2023-03-12T03:49:22.484Z,988.96
2023-03-12T03:50:22.472Z,988.91
2023-03-12T03:51:22.483Z,988.93
2023-03-12T03:52:22.445Z,988.89
2023-03-12T03:53:22.443Z,988.84
2023-03-12T03:54:22.447Z,988.83
2023-03-12T03:55:22.434Z,988.91
2023-03-12T03:56:22.410Z,988.92
2023-03-12T03:57:22.420Z,988.87
2023-03-12T03:58:22.408Z,988.91
2023-03-12T03:59:22.387Z,988.90
2023-03-12T04:00:22.400Z,988.87
2023-03-12T04:01:22.372Z,988.91
2023-03-12T04:02:22.374Z,988.87
2023-03-12T04:03:22.408Z,988.92
2023-03-12T04:04:22.396Z,988.93
2023-03-12T04:05:22.418Z,988.87
2023-03-12T04:06:22.341Z,988.91
2023-03-12T04:07:22.330Z,988.91
2023-03-12T04:08:22.329Z,988.89
2023-03-12T04:09:22.316Z,988.82
2023-03-12T04:10:22.301Z,988.86
2023-03-12T04:11:22.295Z,988.85
2023-03-12T04:12:22.287Z,988.79
2023-03-12T04:13:22.320Z,988.82
2023-03-12T04:14:22.289Z,988.81
2023-03-12T04:15:22.278Z,988.78
2023-03-12T04:16:22.333Z,988.78
2023-03-12T04:17:22.258Z,988.76
2023-03-12T04:18:22.260Z,988.79
2023-03-12T04:19:22.236Z,988.75
2023-03-12T04:20:23.120Z,988.76
2023-03-12T04:21:22.206Z,988.78
2023-03-12T04:22:22.216Z,988.73
2023-03-12T04:23:22.206Z,988.79
2023-03-12T04:24:22.199Z,988.70
2023-03-12T04:25:22.187Z,988.67
2023-03-12T04:26:22.182Z,988.70
2023-03-12T04:27:22.177Z,988.79
2023-03-12T04:28:22.164Z,988.71
2023-03-12T04:29:22.151Z,988.72
2023-03-12T04:30:22.167Z,988.76
2023-03-12T04:31:22.187Z,988.76
2023-03-12T04:32:22.160Z,988.68
2023-03-12T04:33:22.126Z,988.70
2023-03-12T04:34:22.111Z,988.66
2023-03-12T04:35:22.100Z,988.68
2023-03-12T04:36:22.106Z,988.74
2023-03-12T04:37:22.122Z,988.77
2023-03-12T04:38:22.088Z,988.78
2023-03-12T04:39:22.103Z,988.77
2023-03-12T04:40:22.133Z,988.76
2023-03-12T04:41:22.065Z,988.78
2023-03-12T04:42:22.068Z,988.74
2023-03-12T04:43:22.049Z,988.76
2023-03-12T04:44:22.038Z,988.77
2023-03-12T04:45:22.040Z,988.79
2023-03-12T04:46:22.090Z,988.71
2023-03-12T04:47:22.023Z,988.76
2023-03-12T04:48:22.020Z,988.72
2023-03-12T04:49:21.994Z,988.73
2023-03-12T04:50:22.013Z,988.71
2023-03-12T04:51:22.012Z,988.72
2023-03-12T04:52:21.979Z,988.73
2023-03-12T04:53:22.091Z,988.77
2023-03-12T04:54:21.969Z,988.65
2023-03-12T04:55:21.975Z,988.75
2023-03-12T04:56:21.949Z,988.80
2023-03-12T04:57:21.944Z,988.71
2023-03-12T04:58:22.695Z,988.75
2023-03-12T04:59:21.936Z,988.70
2023-03-12T05:00:21.947Z,988.71
2023-03-12T05:01:21.903Z,988.69
2023-03-12T05:02:21.969Z,988.64
2023-03-12T05:03:21.906Z,988.66
2023-03-12T05:04:21.899Z,988.60
2023-03-12T05:05:21.890Z,988.61
2023-03-12T05:06:21.883Z,988.66
2023-03-12T05:07:21.866Z,988.70
2023-03-12T05:08:21.868Z,988.68
2023-03-12T05:09:21.853Z,988.62
2023-03-12T05:10:21.852Z,988.64
2023-03-12T05:11:21.853Z,988.69
2023-03-12T05:12:21.840Z,988.61
2023-03-12T05:13:21.840Z,988.55
2023-03-12T05:14:21.809Z,988.53
2023-03-12T05:15:21.808Z,988.59
2023-03-12T05:16:21.784Z,988.60
2023-03-12T05:17:21.801Z,988.60
2023-03-12T05:18:21.772Z,988.56
2023-03-12T05:19:21.790Z,988.47
2023-03-12T05:20:21.779Z,988.46
2023-03-12T05:21:22.641Z,988.42
2023-03-12T05:22:22.274Z,988.38
2023-03-12T05:23:21.733Z,988.41
2023-03-12T05:24:21.762Z,988.35
2023-03-12T05:25:21.783Z,988.42
2023-03-12T05:26:21.714Z,988.39
2023-03-12T05:27:21.721Z,988.38
2023-03-12T05:28:21.731Z,988.40
2023-03-12T05:29:21.704Z,988.38
2023-03-12T05:30:21.707Z,988.35
2023-03-12T05:31:21.765Z,988.34
2023-03-12T05:32:21.734Z,988.32
2023-03-12T05:33:21.669Z,988.32
2023-03-12T05:34:21.669Z,988.33
2023-03-12T05:35:21.665Z,988.37
2023-03-12T05:36:21.706Z,988.33
2023-03-12T05:37:21.655Z,988.37
2023-03-12T05:38:21.671Z,988.34
2023-03-12T05:39:21.663Z,988.37
2023-03-12T05:40:21.610Z,988.40
2023-03-12T05:41:21.599Z,988.39
2023-03-12T05:42:21.603Z,988.43
2023-03-12T05:43:21.579Z,988.41
2023-03-12T05:44:21.742Z,988.46
2023-03-12T05:45:21.569Z,988.48
2023-03-12T05:46:21.574Z,988.47
2023-03-12T05:47:21.557Z,988.46
2023-03-12T05:48:21.554Z,988.48
2023-03-12T05:49:21.529Z,988.46
2023-03-12T05:50:21.555Z,988.48
2023-03-12T05:51:21.543Z,988.43
2023-03-12T05:52:21.504Z,988.44
2023-03-12T05:53:21.536Z,988.45
2023-03-12T05:54:21.493Z,988.42
2023-03-12T05:55:21.519Z,988.45
2023-03-12T05:56:21.510Z,988.37
2023-03-12T05:57:21.482Z,988.42
2023-03-12T05:58:21.476Z,988.39
2023-03-12T05:59:21.477Z,988.44
2023-03-12T06:00:21.441Z,988.45
2023-03-12T06:01:21.459Z,988.38
2023-03-12T06:02:21.499Z,988.42
2023-03-12T06:03:21.550Z,988.37
2023-03-12T06:04:21.418Z,988.38
2023-03-12T06:05:21.426Z,988.30
2023-03-12T06:06:21.420Z,988.26
2023-03-12T06:07:21.383Z,988.36
2023-03-12T06:08:21.407Z,988.28
2023-03-12T06:09:21.409Z,988.35
2023-03-12T06:10:21.378Z,988.28
2023-03-12T06:11:21.366Z,988.35
2023-03-12T06:12:21.373Z,988.34
2023-03-12T06:13:21.354Z,988.37
2023-03-12T06:14:21.359Z,988.32
2023-03-12T06:15:21.328Z,988.36
2023-03-12T06:16:21.349Z,988.43
2023-03-12T06:17:21.327Z,988.43
2023-03-12T06:18:21.314Z,988.37
2023-03-12T06:19:21.308Z,988.31
2023-03-12T06:20:21.296Z,988.36
2023-03-12T06:21:21.312Z,988.38
2023-03-12T06:22:21.271Z,988.38
2023-03-12T06:23:21.672Z,988.41
2023-03-12T06:24:22.261Z,988.41
2023-03-12T06:25:21.265Z,988.39
2023-03-12T06:26:21.249Z,988.38
2023-03-12T06:27:22.148Z,988.34
2023-03-12T06:28:21.241Z,988.31
2023-03-12T06:29:21.243Z,988.26
2023-03-12T06:30:21.245Z,988.26
2023-03-12T06:31:21.225Z,988.30
2023-03-12T06:32:21.226Z,988.31
2023-03-12T06:33:21.189Z,988.34
2023-03-12T06:34:21.184Z,988.32
2023-03-12T06:35:21.305Z,988.30
2023-03-12T06:36:21.719Z,988.29
2023-03-12T06:37:21.158Z,988.33
2023-03-12T06:38:21.158Z,988.33
2023-03-12T06:39:21.174Z,988.33
2023-03-12T06:40:21.134Z,988.32
2023-03-12T06:41:21.141Z,988.33
2023-03-12T06:42:21.118Z,988.34
2023-03-12T06:43:21.120Z,988.26
2023-03-12T06:44:21.126Z,988.30
2023-03-12T06:45:21.105Z,988.32
2023-03-12T06:46:21.107Z,988.37
2023-03-12T06:47:21.082Z,988.40
2023-03-12T06:48:21.082Z,988.29
2023-03-12T06:49:21.073Z,988.31
2023-03-12T06:50:21.065Z,988.30
2023-03-12T06:51:21.074Z,988.36
2023-03-12T06:52:21.043Z,988.35
2023-03-12T06:53:21.021Z,988.36
2023-03-12T06:54:21.044Z,988.36
2023-03-12T06:55:21.016Z,988.38
2023-03-12T06:56:21.007Z,988.36
2023-03-12T06:57:20.989Z,988.34
2023-03-12T06:58:20.996Z,988.33
2023-03-12T06:59:20.995Z,988.34
2023-03-12T07:00:20.979Z,988.31
2023-03-12T07:01:20.972Z,988.27
2023-03-12T07:02:21.088Z,988.33
2023-03-12T07:03:20.953Z,988.30
2023-03-12T07:04:20.950Z,988.31
2023-03-12T07:05:21.024Z,988.26
2023-03-12T07:06:20.940Z,988.24
2023-03-12T07:07:20.931Z,988.27
2023-03-12T07:08:20.933Z,988.22
2023-03-12T07:09:20.920Z,988.32
2023-03-12T07:10:20.895Z,988.27
2023-03-12T07:11:20.901Z,988.27
2023-03-12T07:12:20.898Z,988.22
2023-03-12T07:13:20.906Z,988.16
2023-03-12T07:14:20.880Z,988.27
2023-03-12T07:15:20.862Z,988.15
2023-03-12T07:16:20.883Z,988.19
2023-03-12T07:17:20.879Z,988.16
2023-03-12T07:18:20.846Z,988.09
2023-03-12T07:19:20.829Z,988.12
2023-03-12T07:20:20.857Z,988.08
2023-03-12T07:21:20.810Z,988.06
2023-03-12T07:22:20.803Z,988.05
2023-03-12T07:23:20.794Z,988.02
2023-03-12T07:24:20.824Z,988.08
2023-03-12T07:25:21.272Z,988.15
2023-03-12T07:26:20.761Z,988.16
2023-03-12T07:27:20.771Z,988.12
2023-03-12T07:28:20.781Z,988.15
2023-03-12T07:29:20.753Z,988.10
2023-03-12T07:30:20.735Z,988.08
2023-03-12T07:31:20.782Z,988.05
2023-03-12T07:32:20.760Z,988.02
2023-03-12T07:33:20.898Z,988.00
2023-03-12T07:34:20.904Z,987.94
2023-03-12T07:35:20.818Z,987.96
2023-03-12T07:36:20.765Z,987.93
2023-03-12T07:37:20.686Z,987.89
2023-03-12T07:38:20.698Z,987.91
2023-03-12T07:39:20.687Z,987.92
2023-03-12T07:40:20.642Z,987.89
2023-03-12T07:41:20.737Z,987.89
2023-03-12T07:42:20.678Z,987.86
2023-03-12T07:43:21.835Z,987.88
2023-03-12T07:44:20.626Z,987.87
2023-03-12T07:45:20.664Z,987.85
2023-03-12T07:46:20.623Z,987.79
2023-03-12T07:47:24.256Z,987.79
2023-03-12T07:48:21.742Z,987.75
2023-03-12T07:49:20.591Z,987.77
2023-03-12T07:50:20.607Z,987.78
2023-03-12T07:51:20.561Z,987.81
2023-03-12T07:52:20.622Z,987.81
2023-03-12T07:53:20.551Z,987.83
2023-03-12T07:54:20.569Z,987.78
2023-03-12T07:55:20.683Z,987.79
2023-03-12T07:56:20.657Z,987.74
2023-03-12T07:57:20.539Z,987.82
2023-03-12T07:58:20.676Z,987.77
2023-03-12T07:59:20.512Z,987.79
2023-03-12T08:00:20.532Z,987.74
2023-03-12T08:01:20.537Z,987.72
2023-03-12T08:02:20.599Z,987.77
2023-03-12T08:03:20.721Z,987.73
2023-03-12T08:04:20.589Z,987.80
2023-03-12T08:05:20.455Z,987.71
2023-03-12T08:06:20.475Z,987.72
2023-03-12T08:07:20.470Z,987.66
2023-03-12T08:08:20.464Z,987.64
2023-03-12T08:09:20.443Z,987.67
2023-03-12T08:10:20.506Z,987.71
2023-03-12T08:11:21.235Z,987.66
2023-03-12T08:12:20.449Z,987.68
2023-03-12T08:13:20.504Z,987.72
2023-03-12T08:14:20.407Z,987.67
2023-03-12T08:15:20.375Z,987.68
2023-03-12T08:16:21.157Z,987.69
2023-03-12T08:17:20.373Z,987.74
2023-03-12T08:18:20.359Z,987.80
2023-03-12T08:19:20.332Z,987.74
2023-03-12T08:20:20.322Z,987.73
2023-03-12T08:21:20.331Z,987.67
2023-03-12T08:22:20.337Z,987.68
2023-03-12T08:23:20.296Z,987.71
2023-03-12T08:24:20.306Z,987.67
2023-03-12T08:25:20.305Z,987.71
2023-03-12T08:26:20.277Z,987.70
2023-03-12T08:27:20.277Z,987.69
2023-03-12T08:28:20.276Z,987.74
2023-03-12T08:29:20.249Z,987.77
2023-03-12T08:30:20.234Z,987.68
2023-03-12T08:31:20.252Z,987.67
2023-03-12T08:32:20.376Z,987.60
2023-03-12T08:33:20.210Z,987.55
2023-03-12T08:34:20.205Z,987.54
2023-03-12T08:35:20.209Z,987.50
2023-03-12T08:36:22.382Z,987.49
2023-03-12T08:37:21.189Z,987.43
2023-03-12T08:38:20.186Z,987.45
2023-03-12T08:39:20.211Z,987.51
2023-03-12T08:40:20.167Z,987.50
2023-03-12T08:41:20.203Z,987.51
2023-03-12T08:42:20.152Z,987.59
2023-03-12T08:43:20.149Z,987.51
2023-03-12T08:44:20.129Z,987.53
2023-03-12T08:45:20.148Z,987.51
2023-03-12T08:46:20.201Z,987.56
2023-03-12T08:47:20.099Z,987.57
2023-03-12T08:48:20.106Z,987.51
2023-03-12T08:49:20.100Z,987.48
2023-03-12T08:50:20.075Z,987.46
2023-03-12T08:51:20.085Z,987.45
2023-03-12T08:52:20.060Z,987.51
2023-03-12T08:53:20.054Z,987.45
2023-03-12T08:54:20.058Z,987.42
2023-03-12T08:55:20.047Z,987.46
2023-03-12T08:56:20.032Z,987.39
2023-03-12T08:57:20.048Z,987.41
2023-03-12T08:58:20.032Z,987.40
2023-03-12T08:59:20.004Z,987.35
2023-03-12T09:00:20.018Z,987.37
2023-03-12T09:01:20.006Z,987.31
2023-03-12T09:02:19.994Z,987.30
2023-03-12T09:03:20.021Z,987.28
2023-03-12T09:04:20.103Z,987.27
2023-03-12T09:05:19.967Z,987.32
2023-03-12T09:06:19.963Z,987.30
2023-03-12T09:07:19.947Z,987.33
2023-03-12T09:08:19.942Z,987.30
2023-03-12T09:09:19.929Z,987.30
2023-03-12T09:10:19.927Z,987.29
2023-03-12T09:11:19.944Z,987.35
2023-03-12T09:12:19.908Z,987.38
2023-03-12T09:13:19.893Z,987.33
2023-03-12T09:15:01.036Z,987.37
2023-03-12T09:15:21.881Z,987.37
2023-03-12T09:16:19.944Z,987.38
2023-03-12T09:17:19.889Z,987.41
2023-03-12T09:18:19.902Z,987.39
2023-03-12T09:19:19.850Z,987.44
2023-03-12T09:20:19.833Z,987.35
2023-03-12T09:21:20.679Z,987.37
2023-03-12T09:22:19.826Z,987.32
2023-03-12T09:23:19.815Z,987.33
2023-03-12T09:24:19.800Z,987.31
2023-03-12T09:25:19.820Z,987.29
2023-03-12T09:26:19.804Z,987.29
2023-03-12T09:27:19.776Z,987.28
2023-03-12T09:28:19.772Z,987.18
2023-03-12T09:29:19.751Z,987.25
2023-03-12T09:30:19.824Z,987.18
2023-03-12T09:31:19.786Z,987.29
2023-03-12T09:32:19.737Z,987.23
2023-03-12T09:33:19.738Z,987.21
2023-03-12T09:34:20.714Z,987.20
2023-03-12T09:35:19.710Z,987.26
2023-03-12T09:36:19.706Z,987.29
2023-03-12T09:37:21.654Z,987.33
2023-03-12T09:38:19.725Z,987.20
2023-03-12T09:39:19.711Z,987.29
2023-03-12T09:40:19.669Z,987.25
2023-03-12T09:41:19.662Z,987.25
2023-03-12T09:42:19.652Z,987.18
2023-03-12T09:43:19.644Z,987.25
2023-03-12T09:44:19.635Z,987.26
2023-03-12T09:45:19.630Z,987.27
2023-03-12T09:46:19.666Z,987.32
2023-03-12T09:47:19.641Z,987.29
2023-03-12T09:48:20.260Z,987.31
2023-03-12T09:49:19.592Z,987.28
2023-03-12T09:50:19.583Z,987.23
2023-03-12T09:51:19.580Z,987.23
2023-03-12T09:52:19.566Z,987.23
2023-03-12T09:53:19.582Z,987.17
2023-03-12T09:54:19.577Z,987.16
2023-03-12T09:55:19.534Z,987.12
2023-03-12T09:56:20.189Z,987.13
2023-03-12T09:57:19.532Z,987.13
2023-03-12T09:58:19.532Z,987.12
2023-03-12T09:59:19.506Z,987.09
2023-03-12T10:00:19.516Z,987.17
2023-03-12T10:01:19.504Z,987.09
2023-03-12T10:02:19.528Z,987.08
2023-03-12T10:03:19.482Z,986.93
2023-03-12T10:04:19.496Z,987.03
2023-03-12T10:05:19.468Z,986.92
2023-03-12T10:06:19.449Z,986.89
2023-03-12T10:07:20.185Z,986.90
2023-03-12T10:08:24.588Z,986.89
2023-03-12T10:09:21.439Z,986.77
2023-03-12T10:10:21.173Z,986.80
2023-03-12T10:11:19.429Z,986.75
2023-03-12T10:12:19.421Z,986.74
2023-03-12T10:13:19.416Z,986.74
2023-03-12T10:14:23.862Z,986.69
2023-03-12T10:15:20.401Z,986.72
2023-03-12T10:16:19.476Z,986.68
2023-03-12T10:17:19.361Z,986.64
2023-03-12T10:18:19.520Z,986.68
2023-03-12T10:19:19.371Z,986.67
2023-03-12T10:20:19.350Z,986.74
2023-03-12T10:21:19.337Z,986.73
2023-03-12T10:22:19.346Z,986.60
2023-03-12T10:23:19.325Z,986.57
2023-03-12T10:24:19.329Z,986.65
2023-03-12T10:25:19.315Z,986.62
2023-03-12T10:26:19.309Z,986.67
2023-03-12T10:27:19.292Z,986.65
2023-03-12T10:28:19.316Z,986.70
2023-03-12T10:29:19.285Z,986.69
2023-03-12T10:30:19.291Z,986.69
2023-03-12T10:31:19.283Z,986.66
2023-03-12T10:32:19.302Z,986.64
2023-03-12T10:33:19.245Z,986.61
2023-03-12T10:34:19.243Z,986.64
2023-03-12T10:35:21.626Z,986.72
2023-03-12T10:36:20.228Z,986.70
2023-03-12T10:37:19.210Z,986.69
2023-03-12T10:38:19.212Z,986.67
2023-03-12T10:39:19.193Z,986.68
2023-03-12T10:40:19.185Z,986.67
2023-03-12T10:41:19.173Z,986.64
2023-03-12T10:42:19.162Z,986.69
2023-03-12T10:43:19.170Z,986.67
2023-03-12T10:44:19.166Z,986.69
2023-03-12T10:45:19.155Z,986.78
2023-03-12T10:46:19.208Z,986.72
2023-03-12T10:47:19.136Z,986.74
2023-03-12T10:48:19.122Z,986.71
2023-03-12T10:49:19.119Z,986.72
2023-03-12T10:50:19.109Z,986.67
2023-03-12T10:51:19.102Z,986.68
2023-03-12T10:52:19.107Z,986.67
2023-03-12T10:53:19.082Z,986.64
2023-03-12T10:54:19.094Z,986.60
2023-03-12T10:55:19.686Z,986.66
2023-03-12T10:56:19.067Z,986.68
2023-03-12T10:57:19.054Z,986.67
2023-03-12T10:58:19.036Z,986.72
2023-03-12T10:59:19.042Z,986.68
2023-03-12T11:00:19.069Z,986.65
2023-03-12T11:01:19.073Z,986.63
2023-03-12T11:02:19.708Z,986.63
2023-03-12T11:03:19.009Z,986.69
2023-03-12T11:04:19.692Z,986.72
2023-03-12T11:05:19.004Z,986.74
2023-03-12T11:06:19.011Z,986.68
2023-03-12T11:07:18.959Z,986.73
2023-03-12T11:08:18.996Z,986.70
2023-03-12T11:09:18.961Z,986.70
2023-03-12T11:10:18.947Z,986.72
2023-03-12T11:11:18.939Z,986.73
2023-03-12T11:12:18.917Z,986.73
2023-03-12T11:13:18.954Z,986.76
2023-03-12T11:14:18.956Z,986.72
2023-03-12T11:15:18.913Z,986.73
2023-03-12T11:16:18.988Z,986.69
2023-03-12T11:17:18.884Z,986.73
2023-03-12T11:18:18.936Z,986.77
2023-03-12T11:19:18.920Z,986.75
2023-03-12T11:20:18.887Z,986.70
2023-03-12T11:21:18.849Z,986.76
2023-03-12T11:22:18.849Z,986.80
2023-03-12T11:23:18.881Z,986.81
2023-03-12T11:24:18.829Z,986.86
2023-03-12T11:25:18.823Z,986.81
2023-03-12T11:26:18.823Z,986.83
2023-03-12T11:27:18.807Z,986.88
2023-03-12T11:28:18.835Z,986.77
2023-03-12T11:29:18.863Z,986.74
2023-03-12T11:30:18.804Z,986.78
2023-03-12T11:31:18.872Z,986.74
2023-03-12T11:32:18.839Z,986.71
2023-03-12T11:33:18.771Z,986.76
2023-03-12T11:34:18.753Z,986.72
2023-03-12T11:35:18.767Z,986.68
2023-03-12T11:36:18.730Z,986.71
2023-03-12T11:37:18.729Z,986.68
2023-03-12T11:38:18.755Z,986.74
2023-03-12T11:39:18.761Z,986.69
2023-03-12T11:40:19.724Z,986.65
2023-03-12T11:41:18.724Z,986.69
2023-03-12T11:42:18.693Z,986.70
2023-03-12T11:43:29.247Z,986.69
2023-03-12T11:44:19.669Z,986.71
2023-03-12T11:45:18.669Z,986.66
2023-03-12T11:46:18.658Z,986.67
2023-03-12T11:47:18.668Z,986.62
2023-03-12T11:48:18.705Z,986.58
2023-03-12T11:49:18.639Z,986.60
2023-03-12T11:50:18.671Z,986.69
2023-03-12T11:51:18.602Z,986.61
2023-03-12T11:52:18.648Z,986.66
2023-03-12T11:53:18.599Z,986.66
2023-03-12T11:54:18.588Z,986.63
2023-03-12T11:55:18.582Z,986.54
2023-03-12T11:56:18.589Z,986.59
2023-03-12T11:57:18.556Z,986.67
2023-03-12T11:58:19.207Z,986.61
2023-03-12T11:59:18.554Z,986.60
2023-03-12T12:00:18.542Z,986.57
2023-03-12T12:01:18.527Z,986.48
2023-03-12T12:02:18.600Z,986.36
2023-03-12T12:03:18.550Z,986.36
2023-03-12T12:04:19.200Z,986.41
2023-03-12T12:05:18.504Z,986.38
2023-03-12T12:06:18.515Z,986.38
2023-03-12T12:07:18.483Z,986.37
2023-03-12T12:08:19.293Z,986.35
2023-03-12T12:09:18.457Z,986.36
2023-03-12T12:10:18.486Z,986.30
2023-03-12T12:11:18.436Z,986.28
2023-03-12T12:12:19.213Z,986.22
2023-03-12T12:13:18.481Z,986.22
2023-03-12T12:14:18.438Z,986.29
2023-03-12T12:15:18.428Z,986.23
2023-03-12T12:16:18.476Z,986.27
2023-03-12T12:17:18.812Z,986.31
2023-03-12T12:18:18.387Z,986.21
2023-03-12T12:19:18.422Z,986.27
2023-03-12T12:20:18.494Z,986.22
2023-03-12T12:21:18.394Z,986.28
2023-03-12T12:22:18.382Z,986.27
2023-03-12T12:23:18.353Z,986.22
2023-03-12T12:24:18.390Z,986.27
2023-03-12T12:25:18.345Z,986.25
2023-03-12T12:26:18.333Z,986.20
2023-03-12T12:27:18.394Z,986.18
2023-03-12T12:28:18.376Z,986.24
2023-03-12T12:29:18.295Z,986.22